createdAt,value
2023-06-19T00:00:54.498Z,17.55
2023-06-19T00:03:38.583Z,17.51
2023-06-19T00:06:07.572Z,17.47
2023-06-19T00:08:37.185Z,17.44
2023-06-19T00:11:05.528Z,17.42
2023-06-19T00:13:36.096Z,17.40
2023-06-19T00:16:04.623Z,17.38
2023-06-19T00:18:34.215Z,17.38
2023-06-19T00:21:02.471Z,17.37
2023-06-19T00:23:32.958Z,17.33
2023-06-19T00:26:01.346Z,17.31
2023-06-19T00:28:32.290Z,17.32
2023-06-19T00:31:00.567Z,17.36
2023-06-19T00:33:30.084Z,17.35
2023-06-19T00:35:58.336Z,17.35
2023-06-19T00:38:28.961Z,17.36
2023-06-19T00:40:57.232Z,17.36
2023-06-19T00:43:27.780Z,17.29
2023-06-19T00:45:59.057Z,17.24
2023-06-19T00:48:30.955Z,17.22
2023-06-19T00:50:59.382Z,17.21
2023-06-19T00:53:29.646Z,17.22
2023-06-19T00:55:58.520Z,17.18
2023-06-19T00:58:28.277Z,17.15
2023-06-19T01:01:07.851Z,17.15
2023-06-19T01:03:38.925Z,17.14
2023-06-19T01:06:21.088Z,17.16
2023-06-19T01:09:09.140Z,17.17
2023-06-19T01:11:53.230Z,17.18
2023-06-19T01:14:35.624Z,17.14
2023-06-19T01:17:06.506Z,17.08
2023-06-19T01:19:35.190Z,17.03
2023-06-19T01:22:06.078Z,17.01
2023-06-19T01:24:34.382Z,17.01
2023-06-19T01:27:04.448Z,17.07
2023-06-19T01:29:32.878Z,17.14
2023-06-19T01:32:14.715Z,17.19
2023-06-19T01:34:44.778Z,17.21
2023-06-19T01:37:14.623Z,17.21
2023-06-19T01:39:47.149Z,17.20
2023-06-19T01:42:16.315Z,17.22
2023-06-19T01:44:46.214Z,17.24
2023-06-19T01:47:14.609Z,17.22
2023-06-19T01:49:44.192Z,17.21
2023-06-19T01:52:12.504Z,17.25
2023-06-19T01:54:43.043Z,17.29
2023-06-19T01:57:11.726Z,17.32
2023-06-19T01:59:41.264Z,17.33
2023-06-19T02:02:09.539Z,17.33
2023-06-19T02:04:40.190Z,17.42
2023-06-19T02:07:08.532Z,17.47
2023-06-19T02:09:39.600Z,17.48
2023-06-19T02:12:08.780Z,17.49
2023-06-19T02:14:38.328Z,17.49
2023-06-19T02:17:06.884Z,17.48
2023-06-19T02:19:36.454Z,17.45
2023-06-19T02:22:05.237Z,17.46
2023-06-19T02:24:35.037Z,17.44
2023-06-19T02:27:03.793Z,17.39
2023-06-19T02:29:33.358Z,17.34
2023-06-19T02:32:03.081Z,17.28
2023-06-19T02:34:32.654Z,17.24
2023-06-19T02:37:00.966Z,17.16
2023-06-19T02:39:31.463Z,17.11
2023-06-19T02:41:59.749Z,17.08
2023-06-19T02:44:30.285Z,17.06
2023-06-19T02:46:58.724Z,17.00
2023-06-19T02:49:28.266Z,16.94
2023-06-19T02:51:56.883Z,16.85
2023-06-19T02:54:26.542Z,16.77
2023-06-19T02:56:54.782Z,16.72
2023-06-19T02:59:25.333Z,16.65
2023-06-19T03:01:53.622Z,16.57
2023-06-19T03:04:23.185Z,16.52
2023-06-19T03:06:51.492Z,16.50
2023-06-19T03:09:22.024Z,16.54
2023-06-19T03:11:50.330Z,16.62
2023-06-19T03:14:20.968Z,16.68
2023-06-19T03:16:49.331Z,16.70
2023-06-19T03:19:18.903Z,16.67
2023-06-19T03:21:47.135Z,16.62
2023-06-19T03:24:16.757Z,16.58
2023-06-19T03:26:45.034Z,16.58
2023-06-19T03:29:15.600Z,16.64
2023-06-19T03:31:43.866Z,16.72
2023-06-19T03:34:13.661Z,16.84
2023-06-19T03:36:41.939Z,16.95
2023-06-19T03:39:12.495Z,17.02
2023-06-19T03:41:40.796Z,17.12
2023-06-19T03:44:10.406Z,17.19
2023-06-19T03:46:38.704Z,17.27
2023-06-19T03:49:09.370Z,17.33
2023-06-19T03:51:37.669Z,17.38
2023-06-19T03:54:08.232Z,17.43
2023-06-19T03:56:36.449Z,17.44
2023-06-19T03:59:06.979Z,17.47
2023-06-19T04:01:35.331Z,17.50
2023-06-19T04:04:05.184Z,17.55
2023-06-19T04:06:33.518Z,17.63
2023-06-19T04:09:04.569Z,17.72
2023-06-19T04:11:33.051Z,17.79
2023-06-19T04:14:03.643Z,17.86
2023-06-19T04:16:31.981Z,17.91
2023-06-19T04:19:01.550Z,17.95
2023-06-19T04:21:29.809Z,17.97
2023-06-19T04:24:00.463Z,18.01
2023-06-19T04:26:28.833Z,18.04
2023-06-19T04:28:58.440Z,18.07
2023-06-19T04:31:26.651Z,18.12
2023-06-19T04:33:57.244Z,18.13
2023-06-19T04:36:25.590Z,18.18
2023-06-19T04:38:56.155Z,18.23
2023-06-19T04:41:24.382Z,18.30
2023-06-19T04:43:54.924Z,18.35
2023-06-19T04:46:23.196Z,18.41
2023-06-19T04:48:52.879Z,18.47
2023-06-19T04:51:21.149Z,18.53
2023-06-19T04:53:51.715Z,18.61
2023-06-19T04:56:20.028Z,18.67
2023-06-19T04:58:50.628Z,18.75
2023-06-19T05:01:18.891Z,18.85
2023-06-19T05:03:49.502Z,18.92
2023-06-19T05:06:17.757Z,19.06
2023-06-19T05:08:48.337Z,19.18
2023-06-19T05:11:16.863Z,19.26
2023-06-19T05:13:46.387Z,19.32
2023-06-19T05:16:14.794Z,19.39
2023-06-19T05:18:44.444Z,19.47
2023-06-19T05:21:12.698Z,19.52
2023-06-19T05:23:43.256Z,19.59
2023-06-19T05:26:11.518Z,19.69
2023-06-19T05:28:42.108Z,19.79
2023-06-19T05:31:10.377Z,19.91
2023-06-19T05:33:42.336Z,20.02
2023-06-19T05:36:10.932Z,20.15
2023-06-19T05:38:40.543Z,20.28
2023-06-19T05:41:09.238Z,20.45
2023-06-19T05:43:39.449Z,20.59
2023-06-19T05:46:07.769Z,20.79
2023-06-19T05:48:37.420Z,20.90
2023-06-19T05:51:05.685Z,21.01
2023-06-19T05:53:36.197Z,21.11
2023-06-19T05:56:04.792Z,21.24
2023-06-19T05:58:34.552Z,21.39
2023-06-19T06:01:02.973Z,21.55
2023-06-19T06:03:32.582Z,21.69
2023-06-19T06:06:00.885Z,21.84
2023-06-19T06:08:31.761Z,21.99
2023-06-19T06:11:00.031Z,22.08
2023-06-19T06:13:30.632Z,22.09
2023-06-19T06:15:58.944Z,22.11
2023-06-19T06:18:28.616Z,22.27
2023-06-19T06:20:56.872Z,22.44
2023-06-19T06:23:27.650Z,22.53
2023-06-19T06:25:55.958Z,22.72
2023-06-19T06:28:26.528Z,23.03
2023-06-19T06:30:56.051Z,23.39
2023-06-19T06:33:25.591Z,23.57
2023-06-19T06:35:56.487Z,23.70
2023-06-19T06:38:26.300Z,23.83
2023-06-19T06:40:54.574Z,23.93
2023-06-19T06:43:25.154Z,23.94
2023-06-19T06:45:53.678Z,23.92
2023-06-19T06:48:23.296Z,23.94
2023-06-19T06:50:51.705Z,23.97
2023-06-19T06:53:21.255Z,23.98
2023-06-19T06:55:49.511Z,24.08
2023-06-19T06:58:20.138Z,24.10
2023-06-19T07:00:48.405Z,24.10
2023-06-19T07:03:19.165Z,24.13
2023-06-19T07:05:49.032Z,24.22
2023-06-19T07:08:18.557Z,24.27
2023-06-19T07:10:46.832Z,24.35
2023-06-19T07:13:17.402Z,24.37
2023-06-19T07:15:45.781Z,24.37
2023-06-19T07:18:15.487Z,24.33
2023-06-19T07:20:43.872Z,24.19
2023-06-19T07:23:13.813Z,24.12
2023-06-19T07:25:42.168Z,24.08
2023-06-19T07:28:11.716Z,24.22
2023-06-19T07:30:40.773Z,24.51
2023-06-19T07:33:10.306Z,24.70
2023-06-19T07:35:38.571Z,24.97
2023-06-19T07:38:09.175Z,25.15
2023-06-19T07:40:37.414Z,25.08
2023-06-19T07:43:07.953Z,25.10
2023-06-19T07:45:36.342Z,25.42
2023-06-19T07:48:06.045Z,25.72
2023-06-19T07:50:34.379Z,25.89
2023-06-19T07:53:04.043Z,25.91
2023-06-19T07:55:32.325Z,25.81
2023-06-19T07:58:03.190Z,25.79
2023-06-19T08:00:31.441Z,25.80
2023-06-19T08:03:02.400Z,25.83
2023-06-19T08:05:30.835Z,25.88
2023-06-19T08:08:01.435Z,25.97
2023-06-19T08:10:29.978Z,26.04
2023-06-19T08:12:59.916Z,26.17
2023-06-19T08:15:28.195Z,26.34
2023-06-19T08:17:58.805Z,26.50
2023-06-19T08:20:27.492Z,26.55
2023-06-19T08:22:57.397Z,26.60
2023-06-19T08:25:25.678Z,26.58
2023-06-19T08:27:56.232Z,26.50
2023-06-19T08:30:24.832Z,26.32
2023-06-19T08:32:54.651Z,26.22
2023-06-19T08:35:22.909Z,26.32
2023-06-19T08:37:53.452Z,26.51
2023-06-19T08:40:22.082Z,26.69
2023-06-19T08:42:51.757Z,26.93
2023-06-19T08:45:20.003Z,27.20
2023-06-19T08:47:50.822Z,27.40
2023-06-19T08:50:19.083Z,27.58
2023-06-19T08:52:49.705Z,27.60
2023-06-19T08:55:18.058Z,27.73
2023-06-19T08:57:50.451Z,27.88
2023-06-19T09:00:30.851Z,28.10
2023-06-19T09:03:12.361Z,28.46
2023-06-19T09:05:46.756Z,28.74
2023-06-19T09:08:16.523Z,28.97
2023-06-19T09:11:03.840Z,29.15
2023-06-19T09:13:34.630Z,29.31
2023-06-19T09:16:07.010Z,29.48
2023-06-19T09:18:46.360Z,29.71
2023-06-19T09:21:21.632Z,29.91
2023-06-19T09:23:52.340Z,30.24
2023-06-19T09:26:20.661Z,30.61
2023-06-19T09:28:51.221Z,30.99
2023-06-19T09:31:19.630Z,31.43
2023-06-19T09:33:50.291Z,31.70
2023-06-19T09:36:18.867Z,32.09
2023-06-19T09:38:50.387Z,32.51
2023-06-19T09:41:20.163Z,32.98
2023-06-19T09:43:51.815Z,33.29
2023-06-19T09:46:21.215Z,33.48
2023-06-19T09:48:56.040Z,33.91
2023-06-19T09:51:33.673Z,34.43
2023-06-19T09:54:03.888Z,34.92
2023-06-19T09:56:32.607Z,35.28
2023-06-19T09:59:04.714Z,35.72
2023-06-19T10:01:33.942Z,36.18
2023-06-19T10:04:09.541Z,36.39
2023-06-19T10:06:47.742Z,36.67
2023-06-19T10:09:17.650Z,37.26
2023-06-19T10:11:54.693Z,37.45
2023-06-19T10:14:24.362Z,37.44
2023-06-19T10:16:52.815Z,37.57
2023-06-19T10:19:23.419Z,37.80
2023-06-19T10:21:55.622Z,37.85
2023-06-19T10:24:27.520Z,38.26
2023-06-19T10:27:03.832Z,38.69
2023-06-19T10:29:41.620Z,38.98
2023-06-19T10:32:14.921Z,39.14
2023-06-19T10:34:47.660Z,39.14
2023-06-19T10:37:17.485Z,39.45
2023-06-19T10:39:45.736Z,39.91
2023-06-19T10:42:16.249Z,40.11
2023-06-19T10:44:44.498Z,40.43
2023-06-19T10:47:15.722Z,40.70
2023-06-19T10:49:44.185Z,41.02
2023-06-19T10:52:14.230Z,41.20
2023-06-19T10:54:42.461Z,41.11
2023-06-19T10:57:13.020Z,40.90
2023-06-19T10:59:41.297Z,40.96
2023-06-19T11:02:12.003Z,41.21
2023-06-19T11:04:40.376Z,41.53
2023-06-19T11:07:11.131Z,41.77
2023-06-19T11:09:39.419Z,41.67
2023-06-19T11:12:10.273Z,41.66
2023-06-19T11:14:38.750Z,41.96
2023-06-19T11:17:08.829Z,41.55
2023-06-19T11:19:37.385Z,40.08
2023-06-19T11:22:07.049Z,38.98
2023-06-19T11:24:35.364Z,37.46
2023-06-19T11:27:05.330Z,36.45
2023-06-19T11:29:35.378Z,35.54
2023-06-19T11:32:18.227Z,34.95
2023-06-19T11:34:47.780Z,34.96
2023-06-19T11:37:18.463Z,35.42
2023-06-19T11:39:50.770Z,35.99
2023-06-19T11:42:19.480Z,37.09
2023-06-19T11:45:01.096Z,37.27
2023-06-19T11:47:34.866Z,37.59
2023-06-19T11:50:06.172Z,38.37
2023-06-19T11:52:35.845Z,38.64
2023-06-19T11:55:04.607Z,38.23
2023-06-19T11:57:34.433Z,37.55
2023-06-19T12:00:04.116Z,36.89
2023-06-19T12:02:33.743Z,36.25
2023-06-19T12:05:02.207Z,36.10
2023-06-19T12:07:33.922Z,36.05
2023-06-19T12:10:03.886Z,35.45
2023-06-19T12:12:33.598Z,34.47
2023-06-19T12:15:02.702Z,33.76
2023-06-19T12:17:32.285Z,33.23
2023-06-19T12:20:01.592Z,32.88
2023-06-19T12:22:31.154Z,32.99
2023-06-19T12:24:59.491Z,34.25
2023-06-19T12:27:29.070Z,35.30
2023-06-19T12:29:57.369Z,36.24
2023-06-19T12:32:28.002Z,37.69
2023-06-19T12:34:56.298Z,38.56
2023-06-19T12:37:27.109Z,38.70
2023-06-19T12:39:55.455Z,39.59
2023-06-19T12:42:25.968Z,40.48
2023-06-19T12:44:54.272Z,41.10
2023-06-19T12:47:24.871Z,41.39
2023-06-19T12:49:53.115Z,41.41
2023-06-19T12:52:23.612Z,41.04
2023-06-19T12:54:51.871Z,40.54
2023-06-19T12:57:22.408Z,39.48
2023-06-19T12:59:50.659Z,38.05
2023-06-19T13:02:21.321Z,37.62
2023-06-19T13:04:49.632Z,37.30
2023-06-19T13:07:20.162Z,37.12
2023-06-19T13:09:48.725Z,35.99
2023-06-19T13:12:18.429Z,34.71
2023-06-19T13:14:46.681Z,33.57
2023-06-19T13:17:17.278Z,32.63
2023-06-19T13:19:45.672Z,31.66
2023-06-19T13:22:15.255Z,31.01
2023-06-19T13:24:43.564Z,30.38
2023-06-19T13:27:13.158Z,29.72
2023-06-19T13:29:41.469Z,29.25
2023-06-19T13:32:11.089Z,28.79
2023-06-19T13:34:39.333Z,28.29
2023-06-19T13:37:09.901Z,27.79
2023-06-19T13:39:38.153Z,27.40
2023-06-19T13:42:08.980Z,27.02
2023-06-19T13:44:37.731Z,26.58
2023-06-19T13:47:07.761Z,26.26
2023-06-19T13:49:36.090Z,25.95
2023-06-19T13:52:05.941Z,25.68
2023-06-19T13:54:34.275Z,25.36
2023-06-19T13:57:04.203Z,25.08
2023-06-19T13:59:32.428Z,24.85
2023-06-19T14:02:03.204Z,24.70
2023-06-19T14:04:31.516Z,24.62
2023-06-19T14:07:01.113Z,24.45
2023-06-19T14:09:29.687Z,24.24
2023-06-19T14:11:59.243Z,24.08
2023-06-19T14:14:27.576Z,23.97
2023-06-19T14:16:57.206Z,23.95
2023-06-19T14:19:25.435Z,23.94
2023-06-19T14:21:56.066Z,23.94
2023-06-19T14:24:24.389Z,23.95
2023-06-19T14:26:53.998Z,23.88
2023-06-19T14:29:22.242Z,23.83
2023-06-19T14:31:53.382Z,23.77
2023-06-19T14:34:21.831Z,23.69
2023-06-19T14:36:51.648Z,23.62
2023-06-19T14:39:19.951Z,23.58
2023-06-19T14:41:50.528Z,23.51
2023-06-19T14:44:18.798Z,23.48
2023-06-19T14:46:49.757Z,23.50
2023-06-19T14:49:18.028Z,23.51
2023-06-19T14:51:47.683Z,23.48
2023-06-19T14:54:16.213Z,23.48
2023-06-19T14:56:45.904Z,23.51
2023-06-19T14:59:14.171Z,23.50
2023-06-19T15:01:45.186Z,23.43
2023-06-19T15:04:13.654Z,23.39
2023-06-19T15:06:43.471Z,23.39
2023-06-19T15:09:11.732Z,23.38
2023-06-19T15:11:42.262Z,23.40
2023-06-19T15:14:10.594Z,23.46
2023-06-19T15:16:41.150Z,23.51
2023-06-19T15:19:09.488Z,23.54
2023-06-19T15:21:39.094Z,23.51
2023-06-19T15:24:08.839Z,23.49
2023-06-19T15:26:40.193Z,23.44
2023-06-19T15:29:08.773Z,23.35
2023-06-19T15:31:38.372Z,23.29
2023-06-19T15:34:06.681Z,23.21
2023-06-19T15:36:37.238Z,23.14
2023-06-19T15:39:05.511Z,23.07
2023-06-19T15:41:36.021Z,22.98
2023-06-19T15:44:04.450Z,22.87
2023-06-19T15:46:34.037Z,22.75
2023-06-19T15:49:02.305Z,22.59
2023-06-19T15:51:32.821Z,22.42
2023-06-19T15:54:01.079Z,22.33
2023-06-19T15:56:31.767Z,22.31
2023-06-19T15:59:00.029Z,22.31
2023-06-19T16:01:30.630Z,22.29
2023-06-19T16:03:59.174Z,22.31
2023-06-19T16:06:28.869Z,22.31
2023-06-19T16:08:57.283Z,22.34
2023-06-19T16:11:26.883Z,22.36
2023-06-19T16:13:55.132Z,22.38
2023-06-19T16:16:24.814Z,22.42
2023-06-19T16:18:53.092Z,22.47
2023-06-19T16:21:23.623Z,22.48
2023-06-19T16:23:51.968Z,22.53
2023-06-19T16:26:22.496Z,22.56
2023-06-19T16:28:50.884Z,22.54
2023-06-19T16:31:20.485Z,22.48
2023-06-19T16:33:48.815Z,22.45
2023-06-19T16:36:18.710Z,22.42
2023-06-19T16:38:47.429Z,22.37
2023-06-19T16:41:19.939Z,22.30
2023-06-19T16:43:49.013Z,22.26
2023-06-19T16:46:18.619Z,22.28
2023-06-19T16:48:47.088Z,22.28
2023-06-19T16:51:17.739Z,22.25
2023-06-19T16:53:46.064Z,22.23
2023-06-19T16:56:16.674Z,22.22
2023-06-19T16:58:45.024Z,22.20
2023-06-19T17:01:14.584Z,22.11
2023-06-19T17:03:42.873Z,21.97
2023-06-19T17:06:12.464Z,21.82
2023-06-19T17:08:40.715Z,21.71
2023-06-19T17:11:11.302Z,21.63
2023-06-19T17:13:39.796Z,21.56
2023-06-19T17:16:10.452Z,21.51
2023-06-19T17:18:38.698Z,21.49
2023-06-19T17:21:09.281Z,21.42
2023-06-19T17:23:37.605Z,21.36
2023-06-19T17:26:08.228Z,21.33
2023-06-19T17:28:36.472Z,21.30
2023-06-19T17:31:07.058Z,21.29
2023-06-19T17:33:35.495Z,21.29
2023-06-19T17:36:05.303Z,21.27
2023-06-19T17:38:33.565Z,21.24
2023-06-19T17:41:03.181Z,21.24
2023-06-19T17:43:31.484Z,21.25
2023-06-19T17:46:02.057Z,21.28
2023-06-19T17:48:30.360Z,21.31
2023-06-19T17:50:59.984Z,21.35
2023-06-19T17:53:28.257Z,21.37
2023-06-19T17:55:58.988Z,21.39
2023-06-19T17:58:27.267Z,21.40
2023-06-19T18:00:57.791Z,21.39
2023-06-19T18:03:26.160Z,21.36
2023-06-19T18:05:55.851Z,21.35
2023-06-19T18:08:24.140Z,21.33
2023-06-19T18:10:54.761Z,21.32
2023-06-19T18:13:23.015Z,21.31
2023-06-19T18:16:06.908Z,21.32
2023-06-19T18:18:41.659Z,21.31
2023-06-19T18:21:09.968Z,21.36
2023-06-19T18:23:40.507Z,21.37
2023-06-19T18:26:08.899Z,21.35
2023-06-19T18:28:39.396Z,21.31
2023-06-19T18:31:07.650Z,21.28
2023-06-19T18:33:38.198Z,21.26
2023-06-19T18:36:06.497Z,21.21
2023-06-19T18:38:38.321Z,21.19
2023-06-19T18:41:06.585Z,21.18
2023-06-19T18:43:36.118Z,21.18
2023-06-19T18:46:04.649Z,21.19
2023-06-19T18:48:34.296Z,21.20
2023-06-19T18:51:02.564Z,21.24
2023-06-19T18:53:33.126Z,21.24
2023-06-19T18:56:01.415Z,21.23
2023-06-19T18:58:31.965Z,21.19
2023-06-19T19:01:00.664Z,21.09
2023-06-19T19:03:30.880Z,20.94
2023-06-19T19:05:59.327Z,20.80
2023-06-19T19:08:29.841Z,20.67
2023-06-19T19:10:58.204Z,20.50
2023-06-19T19:13:27.764Z,20.36
2023-06-19T19:15:56.034Z,20.21
2023-06-19T19:18:26.654Z,20.10
2023-06-19T19:20:54.938Z,19.98
2023-06-19T19:23:25.490Z,19.89
2023-06-19T19:25:53.754Z,19.86
2023-06-19T19:28:24.321Z,19.85
2023-06-19T19:30:52.570Z,19.88
2023-06-19T19:33:23.246Z,19.89
2023-06-19T19:35:51.808Z,19.87
2023-06-19T19:38:21.429Z,19.89
2023-06-19T19:40:49.696Z,19.92
2023-06-19T19:43:19.376Z,19.96
2023-06-19T19:45:47.744Z,19.99
2023-06-19T19:48:17.406Z,19.98
2023-06-19T19:50:45.646Z,19.99
2023-06-19T19:53:16.551Z,20.04
2023-06-19T19:55:44.811Z,20.11
2023-06-19T19:58:15.329Z,20.14
2023-06-19T20:00:43.833Z,20.14
2023-06-19T20:03:12.587Z,20.17
2023-06-19T20:05:40.913Z,20.20
2023-06-19T20:08:12.208Z,20.23
2023-06-19T20:10:40.453Z,20.24
2023-06-19T20:13:11.004Z,20.28
2023-06-19T20:15:39.639Z,20.27
2023-06-19T20:18:09.218Z,20.27
2023-06-19T20:20:37.511Z,20.32
2023-06-19T20:23:08.141Z,20.35
2023-06-19T20:25:36.396Z,20.35
2023-06-19T20:28:08.921Z,20.29
2023-06-19T20:30:38.529Z,20.28
2023-06-19T20:33:08.106Z,20.29
2023-06-19T20:35:36.377Z,20.29
2023-06-19T20:38:07.012Z,20.30
2023-06-19T20:40:35.237Z,20.31
2023-06-19T20:43:05.993Z,20.30
2023-06-19T20:45:34.627Z,20.29
2023-06-19T20:48:04.647Z,20.29
2023-06-19T20:50:32.937Z,20.29
2023-06-19T20:53:03.530Z,20.26
2023-06-19T20:55:31.874Z,20.28
2023-06-19T20:58:01.612Z,20.30
2023-06-19T21:00:29.866Z,20.32
2023-06-19T21:03:00.458Z,20.33
2023-06-19T21:05:29.036Z,20.31
2023-06-19T21:07:58.684Z,20.28
2023-06-19T21:10:27.330Z,20.26
2023-06-19T21:13:04.496Z,20.27
2023-06-19T21:15:40.024Z,20.28
2023-06-19T21:18:08.299Z,20.27
2023-06-19T21:20:38.863Z,20.27
2023-06-19T21:23:07.148Z,20.27
2023-06-19T21:25:37.703Z,20.29
2023-06-19T21:28:05.926Z,20.29
2023-06-19T21:30:36.480Z,20.26
2023-06-19T21:33:04.910Z,20.26
2023-06-19T21:35:34.493Z,20.28
2023-06-19T21:38:02.795Z,20.31
2023-06-19T21:40:33.309Z,20.34
2023-06-19T21:43:01.521Z,20.35
2023-06-19T21:45:32.030Z,20.36
2023-06-19T21:48:00.331Z,20.37
2023-06-19T21:50:30.848Z,20.39
2023-06-19T21:52:59.127Z,20.40
2023-06-19T21:55:29.686Z,20.40
2023-06-19T21:58:00.492Z,20.38
2023-06-19T22:00:30.615Z,20.37
2023-06-19T22:02:59.151Z,20.37
2023-06-19T22:05:29.919Z,20.34
2023-06-19T22:07:58.154Z,20.28
2023-06-19T22:10:28.786Z,20.23
2023-06-19T22:12:57.208Z,20.21
2023-06-19T22:15:27.805Z,20.20
2023-06-19T22:17:56.147Z,20.21
2023-06-19T22:20:25.945Z,20.21
2023-06-19T22:22:54.349Z,20.25
2023-06-19T22:25:24.895Z,20.27
2023-06-19T22:27:53.333Z,20.31
2023-06-19T22:30:23.140Z,20.33
2023-06-19T22:32:51.690Z,20.29
2023-06-19T22:35:21.409Z,20.24
2023-06-19T22:37:50.576Z,20.21
2023-06-19T22:40:20.095Z,20.16
2023-06-19T22:42:51.171Z,20.12
2023-06-19T22:45:21.944Z,20.06
2023-06-19T22:47:50.358Z,20.00
2023-06-19T22:50:19.992Z,19.95
2023-06-19T22:52:48.653Z,19.90
2023-06-19T22:55:18.394Z,19.88
2023-06-19T22:57:46.718Z,19.89
2023-06-19T23:00:17.495Z,19.86
2023-06-19T23:02:46.099Z,19.81
2023-06-19T23:05:15.916Z,19.77
2023-06-19T23:07:44.198Z,19.73
2023-06-19T23:10:14.757Z,19.70
2023-06-19T23:12:42.988Z,19.69
2023-06-19T23:15:13.508Z,19.68
2023-06-19T23:17:41.837Z,19.68
2023-06-19T23:20:11.733Z,19.66
2023-06-19T23:22:40.328Z,19.63
2023-06-19T23:25:09.949Z,19.60
2023-06-19T23:27:38.228Z,19.58
2023-06-19T23:30:09.243Z,19.55
2023-06-19T23:32:37.762Z,19.49
2023-06-19T23:35:07.811Z,19.44
2023-06-19T23:37:36.086Z,19.37
2023-06-19T23:40:07.356Z,19.31
2023-06-19T23:42:35.848Z,19.25
2023-06-19T23:45:05.979Z,19.18
2023-06-19T23:47:34.283Z,19.10
2023-06-19T23:50:04.236Z,19.03
2023-06-19T23:52:42.674Z,18.98
2023-06-19T23:55:13.927Z,18.91
2023-06-19T23:57:42.174Z,18.85
